Time;durP1;ratioP1;P1;durP2;ratioP2;P2;SDS_P1;SDS_P2;PMS_P1;PMS_P2;Temp;Humidity;BMP_temperature;BMP_pressure;BME280_temperature;BME280_humidity;BME280_pressure;Samples;Min_cycle;Max_cycle;Signal;HPM_P1;HPM_P2
2022/09/02 00:01:45;;;;;;;4.28;1.52;;;;;;;16.23;92.72;101346.63;5045024;28;20507;-80
2022/09/02 00:04:17;;;;;;;7.25;1.55;;;;;;;16.34;92.49;101342.84;5040831;28;20072;-80
2022/09/02 00:06:53;;;;;;;3.58;1.52;;;;;;;16.10;93.03;101330.38;5066814;28;20036;-80
2022/09/02 00:09:21;;;;;;;4.53;1.38;;;;;;;16.29;92.89;101343.28;5048024;28;20376;-80
2022/09/02 00:11:49;;;;;;;5.20;1.55;;;;;;;16.17;93.11;101344.47;5067832;28;20085;-80
2022/09/02 00:14:21;;;;;;;9.65;1.60;;;;;;;16.10;93.62;101333.13;5066195;28;20035;-80
2022/09/02 00:16:50;;;;;;;5.70;1.90;;;;;;;16.04;94.46;101333.72;5056754;28;20036;-80
2022/09/02 00:19:21;;;;;;;5.75;1.55;;;;;;;16.02;93.69;101327.47;5063365;28;20032;-80
2022/09/02 00:21:51;;;;;;;9.52;1.80;;;;;;;15.98;94.88;101332.38;5067712;28;20032;-80
2022/09/02 00:24:17;;;;;;;8.00;1.70;;;;;;;15.97;93.50;101333.44;5075756;28;20058;-79
2022/09/02 00:26:48;;;;;;;10.05;2.00;;;;;;;15.92;94.13;101324.72;5060199;28;20047;-78
2022/09/02 00:29:20;;;;;;;7.82;1.80;;;;;;;15.78;96.24;101322.38;5072969;28;20033;-80
2022/09/02 00:31:46;;;;;;;11.07;2.67;;;;;;;15.67;97.76;101314.19;5054109;28;20079;-80
2022/09/02 00:34:16;;;;;;;4.70;1.60;;;;;;;15.77;97.61;101323.38;5058117;28;20497;-80
2022/09/02 00:36:43;;;;;;;3.28;1.55;;;;;;;15.75;96.79;101322.63;5057224;28;20048;-79
2022/09/02 00:39:09;;;;;;;4.22;1.80;;;;;;;15.75;96.35;101320.72;5074552;28;20147;-79
2022/09/02 00:41:37;;;;;;;9.50;1.90;;;;;;;15.73;97.19;101322.75;5076115;28;20380;-79
2022/09/02 00:44:07;;;;;;;4.65;1.45;;;;;;;15.69;96.43;101317.66;5061659;28;20039;-79
2022/09/02 00:46:36;;;;;;;6.35;1.83;;;;;;;15.61;97.10;101308.22;5065010;28;20597;-80
2022/09/02 00:49:23;;;;;;;11.65;1.73;;;;;;;15.55;97.95;101311.56;5055816;28;20515;-79
2022/09/02 00:52:15;;;;;;;7.28;1.67;;;;;;;15.50;97.86;101313.88;5060328;28;20085;-80
2022/09/02 00:54:47;;;;;;;2.25;1.42;;;;;;;15.44;98.07;101317.19;5068861;28;20025;-79
2022/09/02 00:57:18;;;;;;;5.53;1.90;;;;;;;15.49;97.53;101311.25;5062868;28;20018;-79
2022/09/02 01:00:10;;;;;;;5.22;1.70;;;;;;;15.50;98.30;101308.34;5066668;28;20032;-79
2022/09/02 01:02:40;;;;;;;13.48;1.60;;;;;;;15.34;98.89;101305.28;5062764;28;20051;-79
2022/09/02 01:05:09;;;;;;;4.53;1.73;;;;;;;15.41;99.57;101304.56;5052327;28;20078;-79
2022/09/02 01:07:39;;;;;;;2.55;1.60;;;;;;;15.38;99.50;101307.59;5061309;28;20072;-79
2022/09/02 01:10:16;;;;;;;6.53;1.80;;;;;;;15.29;100.00;101302.06;5060127;28;20032;-79
2022/09/02 01:12:45;;;;;;;5.93;1.67;;;;;;;15.04;100.00;101305.19;5065739;28;20036;-79
2022/09/02 01:15:15;;;;;;;2.55;1.52;;;;;;;15.05;100.00;101300.53;5057761;28;20492;-80
2022/09/02 01:17:48;;;;;;;7.82;1.77;;;;;;;15.10;100.00;101303.72;5050763;28;20143;-79
2022/09/02 01:20:19;;;;;;;4.47;1.70;;;;;;;14.98;100.00;101293.84;5067838;28;20032;-78
2022/09/02 01:22:51;;;;;;;6.68;1.85;;;;;;;15.00;100.00;101298.22;5065097;28;20029;-79
2022/09/02 01:25:25;;;;;;;;;;;;;;;14.97;100.00;101294.84;5064281;28;20029;-79
2022/09/02 01:27:51;;;;;;;3.42;1.90;;;;;;;14.87;100.00;101289.28;5062623;28;20007;-79
2022/09/02 01:30:24;;;;;;;7.07;1.85;;;;;;;14.98;100.00;101296.59;5051534;28;20041;-79
2022/09/02 01:32:56;;;;;;;5.40;1.58;;;;;;;14.96;100.00;101287.59;5063617;28;20486;-79
2022/09/02 01:35:27;;;;;;;7.28;1.60;;;;;;;14.81;100.00;101292.63;5052666;28;20055;-79
2022/09/02 01:37:55;;;;;;;2.90;1.60;;;;;;;14.83;100.00;101288.69;5064107;28;20442;-79
2022/09/02 01:40:21;;;;;;;2.78;1.80;;;;;;;14.77;100.00;101291.13;5066549;28;20029;-79
2022/09/02 01:42:54;;;;;;;3.47;1.90;;;;;;;14.67;100.00;101285.56;5049391;28;20089;-80
2022/09/02 01:45:24;;;;;;;6.35;1.85;;;;;;;14.66;100.00;101286.59;5064990;28;20098;-80
2022/09/02 01:47:55;;;;;;;15.30;2.13;;;;;;;14.64;100.00;101286.72;5056843;28;20040;-80
2022/09/02 01:50:24;;;;;;;3.50;1.80;;;;;;;14.57;100.00;101285.47;5079055;28;20056;-79
2022/09/02 01:52:49;;;;;;;7.68;2.15;;;;;;;14.68;100.00;101287.31;5072557;28;20429;-78
2022/09/02 01:55:18;;;;;;;3.85;1.90;;;;;;;14.57;100.00;101281.88;5062554;28;20033;-78
2022/09/02 01:57:44;;;;;;;7.07;1.98;;;;;;;14.49;100.00;101279.78;5065038;28;20170;-78
2022/09/02 02:00:11;;;;;;;6.07;1.80;;;;;;;14.38;100.00;101272.50;5049969;28;20055;-77
2022/09/02 02:02:37;;;;;;;3.20;1.80;;;;;;;14.38;100.00;101269.75;5073864;28;20051;-78
2022/09/02 02:05:03;;;;;;;5.47;1.85;;;;;;;14.50;100.00;101273.28;5073452;28;20036;-78
2022/09/02 02:07:29;;;;;;;2.45;1.80;;;;;;;14.50;100.00;101271.38;5059824;28;20048;-78
2022/09/02 02:09:59;;;;;;;7.28;2.25;;;;;;;14.55;100.00;101281.13;5061347;28;20056;-78
2022/09/02 02:12:24;;;;;;;6.15;2.63;;;;;;;14.49;100.00;101274.28;5058559;28;20162;-78
2022/09/02 02:14:56;;;;;;;4.43;2.13;;;;;;;14.47;100.00;101281.81;5053784;28;20063;-78
2022/09/02 02:17:21;;;;;;;5.07;1.92;;;;;;;14.40;100.00;101281.50;5063702;28;20045;-77
2022/09/02 02:19:52;;;;;;;11.25;2.70;;;;;;;14.39;100.00;101284.38;5057257;28;20029;-79
2022/09/02 02:22:22;;;;;;;9.68;2.40;;;;;;;14.19;100.00;101278.75;5073451;28;20035;-79
2022/09/02 02:24:50;;;;;;;9.05;2.50;;;;;;;14.32;100.00;101273.03;5057408;28;20040;-79
2022/09/02 02:27:20;;;;;;;7.85;2.55;;;;;;;14.33;100.00;101285.78;5045922;28;20028;-78
2022/09/02 02:29:49;;;;;;;10.98;2.60;;;;;;;14.29;100.00;101276.06;5065764;28;20044;-79
2022/09/02 02:32:17;;;;;;;11.85;2.60;;;;;;;14.12;100.00;101272.03;5071417;28;20107;-79
2022/09/02 02:34:43;;;;;;;7.50;3.17;;;;;;;14.12;100.00;101272.03;5058920;28;20040;-78
2022/09/02 02:37:11;;;;;;;5.35;2.83;;;;;;;14.19;100.00;101272.38;5057413;28;20044;-78
2022/09/02 02:39:39;;;;;;;12.27;3.10;;;;;;;14.21;100.00;101268.47;5056428;28;20037;-79
2022/09/02 02:42:12;;;;;;;17.83;3.30;;;;;;;14.28;100.00;101260.53;5045050;28;20034;-78
2022/09/02 02:44:41;;;;;;;11.95;3.75;;;;;;;14.24;100.00;101256.31;5054531;28;20087;-79
2022/09/02 02:47:08;;;;;;;8.80;3.85;;;;;;;14.16;100.00;101259.72;5057070;28;20040;-79
2022/09/02 02:49:41;;;;;;;4.28;3.67;;;;;;;14.08;100.00;101265.91;5052650;28;20033;-78
2022/09/02 02:52:08;;;;;;;17.60;4.50;;;;;;;14.16;100.00;101257.84;5045485;28;20029;-78
2022/09/02 02:54:36;;;;;;;12.60;4.22;;;;;;;14.19;100.00;101255.84;5057203;28;20094;-78
2022/09/02 02:57:03;;;;;;;7.65;3.80;;;;;;;14.34;100.00;101265.50;5070769;28;20435;-79
2022/09/02 02:59:29;;;;;;;11.52;4.03;;;;;;;14.44;100.00;101265.56;5043226;28;20037;-79
2022/09/02 03:02:01;;;;;;;9.02;3.50;;;;;;;14.43;100.00;101261.03;5067866;28;20143;-79
2022/09/02 03:04:29;;;;;;;15.02;3.80;;;;;;;14.40;100.00;101253.06;5061103;28;20040;-78
2022/09/02 03:06:54;;;;;;;15.02;3.60;;;;;;;14.42;100.00;101256.56;5072140;28;20033;-77
2022/09/02 03:09:21;;;;;;;11.38;3.40;;;;;;;14.55;100.00;101259.09;5036310;28;20036;-78
2022/09/02 03:11:47;;;;;;;11.60;3.33;;;;;;;14.61;100.00;101259.44;5049467;28;20226;-78
2022/09/02 03:14:14;;;;;;;9.45;2.67;;;;;;;14.56;100.00;101252.56;5075031;28;20020;-78
2022/09/02 03:16:49;;;;;;;11.93;3.00;;;;;;;14.58;100.00;101247.81;5057354;28;20060;-79
2022/09/02 03:19:18;;;;;;;14.05;3.08;;;;;;;14.64;100.00;101252.78;5033905;28;20052;-78
2022/09/02 03:21:47;;;;;;;7.40;3.00;;;;;;;14.66;100.00;101253.53;5071346;28;20028;-79
2022/09/02 03:24:19;;;;;;;13.70;3.33;;;;;;;14.71;100.00;101262.25;5041951;28;20052;-79
2022/09/02 03:26:46;;;;;;;6.65;3.60;;;;;;;14.71;100.00;101251.22;5045675;28;20032;-78
2022/09/02 03:29:16;;;;;;;15.05;2.75;;;;;;;14.68;100.00;101255.13;5053998;28;20045;-78
2022/09/02 03:31:47;;;;;;;10.70;2.90;;;;;;;14.68;100.00;101246.84;5056754;28;20036;-78
2022/09/02 03:34:12;;;;;;;7.50;3.00;;;;;;;14.74;100.00;101261.97;5067235;28;20471;-78
2022/09/02 03:36:39;;;;;;;9.65;2.95;;;;;;;14.72;100.00;101263.09;5063676;28;20037;-78
2022/09/02 03:39:07;;;;;;;11.57;2.80;;;;;;;14.66;100.00;101253.53;5059904;28;20405;-77
2022/09/02 03:41:34;;;;;;;16.30;3.33;;;;;;;14.63;100.00;101249.16;5068260;28;20039;-78
2022/09/02 03:44:01;;;;;;;10.27;3.58;;;;;;;14.74;100.00;101261.06;5059304;28;20044;-77
2022/09/02 03:46:28;;;;;;;14.15;3.08;;;;;;;14.68;100.00;101245.97;5052391;28;20386;-79
2022/09/02 03:48:58;;;;;;;7.32;3.00;;;;;;;14.73;100.00;101251.09;5063851;28;20041;-78
2022/09/02 03:51:25;;;;;;;8.50;3.30;;;;;;;14.78;100.00;101255.16;5074241;28;20139;-78
2022/09/02 03:54:01;;;;;;;18.55;3.17;;;;;;;14.82;100.00;101244.72;5073181;28;20060;-79
2022/09/02 03:56:33;;;;;;;15.02;3.15;;;;;;;14.78;100.00;101244.13;5058446;28;20033;-78
2022/09/02 03:59:06;;;;;;;11.70;3.22;;;;;;;14.86;100.00;101238.78;5045832;28;20455;-79
2022/09/02 04:01:40;;;;;;;13.65;3.92;;;;;;;14.87;100.00;101242.41;5041729;28;20029;-77
2022/09/02 04:04:14;;;;;;;8.88;3.03;;;;;;;14.87;100.00;101236.91;5061627;28;20144;-77
2022/09/02 04:06:49;;;;;;;13.27;3.17;;;;;;;14.82;100.00;101237.34;5065311;28;20033;-78
2022/09/02 04:09:21;;;;;;;13.43;3.15;;;;;;;14.88;100.00;101241.41;5054877;28;20090;-78
2022/09/02 04:11:54;;;;;;;10.90;3.47;;;;;;;14.89;100.00;101238.50;5040660;28;20083;-78
2022/09/02 04:14:20;;;;;;;12.85;3.05;;;;;;;14.83;100.00;101239.06;5058314;28;20037;-78
2022/09/02 04:16:45;;;;;;;12.90;3.08;;;;;;;14.91;100.00;101238.38;5033915;28;20029;-78
2022/09/02 04:19:18;;;;;;;16.00;3.17;;;;;;;14.87;100.00;101235.03;5059473;28;20040;-78
2022/09/02 04:21:50;;;;;;;8.65;3.22;;;;;;;14.91;100.00;101232.00;5047824;28;20032;-78
2022/09/02 04:24:26;;;;;;;9.90;3.10;;;;;;;14.89;100.00;101230.25;5056876;28;20159;-80
2022/09/02 04:26:51;;;;;;;8.10;3.05;;;;;;;14.85;100.00;101230.66;5064035;28;20086;-78
2022/09/02 04:29:25;;;;;;;;;;;;;;;14.88;100.00;101235.91;5070065;28;20035;-78
2022/09/02 04:31:51;;;;;;;6.85;2.30;;;;;;;14.90;100.00;101231.09;5055151;28;19917;-77
2022/09/02 04:34:19;;;;;;;13.00;2.97;;;;;;;14.87;100.00;101229.53;5055756;28;20048;-78
2022/09/02 04:36:48;;;;;;;12.10;2.70;;;;;;;14.87;100.00;101221.25;5057042;28;20102;-80
2022/09/02 04:39:18;;;;;;;8.00;2.95;;;;;;;14.87;100.00;101226.75;5057623;28;20131;-78
2022/09/02 04:41:46;;;;;;;13.00;3.22;;;;;;;14.81;100.00;101223.69;5070100;28;20078;-78
2022/09/02 04:44:21;;;;;;;13.40;2.70;;;;;;;14.85;100.00;101226.00;5054153;28;20045;-79
2022/09/02 04:46:51;;;;;;;7.38;2.53;;;;;;;14.92;100.00;101228.22;5034837;28;20060;-78
2022/09/02 04:49:17;;;;;;;18.40;3.17;;;;;;;14.98;100.00;101222.13;5064171;28;20496;-78
2022/09/02 04:51:43;;;;;;;13.30;3.03;;;;;;;14.92;100.00;101217.19;5055008;28;20036;-78
2022/09/02 04:54:08;;;;;;;8.23;3.17;;;;;;;14.92;100.00;101222.69;5059959;28;20041;-78
2022/09/02 04:56:37;;;;;;;8.32;2.78;;;;;;;15.03;100.00;101225.34;5066947;28;20032;-78
2022/09/02 04:59:11;;;;;;;14.50;3.47;;;;;;;14.94;100.00;101229.81;5058316;28;20043;-79
2022/09/02 05:01:39;;;;;;;6.43;2.50;;;;;;;14.95;100.00;101219.66;5063015;28;20032;-78
2022/09/02 05:04:12;;;;;;;11.73;2.78;;;;;;;14.95;100.00;101226.03;5052637;28;20033;-78
2022/09/02 05:06:46;;;;;;;6.57;2.90;;;;;;;14.95;100.00;101230.69;5056686;28;20404;-78
2022/09/02 05:09:12;;;;;;;10.90;3.50;;;;;;;14.94;100.00;101228.94;5038540;28;20043;-78
2022/09/02 05:11:46;;;;;;;6.85;2.72;;;;;;;15.00;100.00;101231.13;5039606;28;20033;-78
2022/09/02 05:14:15;;;;;;;11.10;3.25;;;;;;;15.00;100.00;101233.88;5070586;28;20043;-78
2022/09/02 05:16:41;;;;;;;8.15;2.90;;;;;;;14.97;100.00;101231.41;5043945;28;20095;-79
2022/09/02 05:19:10;;;;;;;14.85;3.45;;;;;;;15.05;100.00;101234.34;5054837;28;20441;-78
2022/09/02 05:21:41;;;;;;;8.65;3.10;;;;;;;15.08;100.00;101234.06;5063043;28;20028;-78
2022/09/02 05:24:12;;;;;;;9.30;2.95;;;;;;;15.01;100.00;101228.22;5056016;28;20040;-79
2022/09/02 05:26:39;;;;;;;11.82;2.90;;;;;;;15.05;100.00;101231.56;5055662;28;20032;-78
2022/09/02 05:29:08;;;;;;;8.57;3.25;;;;;;;15.04;100.00;101225.19;5071923;28;20032;-78
2022/09/02 05:31:34;;;;;;;10.93;3.45;;;;;;;15.08;100.00;101231.28;5068665;28;20060;-78
2022/09/02 05:34:08;;;;;;;4.85;2.55;;;;;;;15.14;100.00;101230.75;5073317;28;20024;-78
2022/09/02 05:36:33;;;;;;;7.13;3.03;;;;;;;15.09;100.00;101232.19;5063806;28;20166;-78
2022/09/02 05:39:04;;;;;;;20.77;2.90;;;;;;;15.09;100.00;101227.53;5071128;28;20139;-79
2022/09/02 05:41:33;;;;;;;16.92;3.35;;;;;;;15.16;100.00;101231.47;5052439;28;20037;-79
2022/09/02 05:44:00;;;;;;;10.63;3.22;;;;;;;15.21;100.00;101233.78;5073838;28;20039;-79
2022/09/02 05:46:31;;;;;;;19.50;3.80;;;;;;;15.18;100.00;101231.31;5073093;28;20033;-78
2022/09/02 05:49:07;;;;;;;12.65;3.10;;;;;;;15.18;100.00;101239.59;5054689;28;20074;-79
2022/09/02 05:51:39;;;;;;;21.25;2.75;;;;;;;15.21;100.00;101242.94;5067975;28;20028;-79
2022/09/02 05:54:08;;;;;;;8.93;3.00;;;;;;;15.30;100.00;101232.06;5042169;28;20029;-79
2022/09/02 05:56:42;;;;;;;9.13;3.40;;;;;;;15.30;100.00;101232.94;5063123;28;20033;-79
2022/09/02 05:59:09;;;;;;;4.50;2.78;;;;;;;15.40;100.00;101227.44;5058705;28;20040;-79
2022/09/02 06:01:40;;;;;;;8.83;3.53;;;;;;;15.41;100.00;101227.31;5064772;28;20029;-79
2022/09/02 06:04:07;;;;;;;19.40;4.75;;;;;;;15.42;100.00;101228.16;5057163;28;20099;-79
2022/09/02 06:06:42;;;;;;;19.95;3.92;;;;;;;15.47;100.00;101227.75;5058250;28;20024;-79
2022/09/02 06:09:20;;;;;;;11.13;3.13;;;;;;;15.54;100.00;101224.22;5064218;28;20082;-79
2022/09/02 06:11:50;;;;;;;8.03;2.80;;;;;;;15.57;100.00;101226.72;5055863;28;20037;-79
2022/09/02 06:14:21;;;;;;;28.90;3.80;;;;;;;15.66;100.00;101222.22;5055415;28;20468;-78
2022/09/02 06:16:49;;;;;;;8.27;3.67;;;;;;;15.72;100.00;101223.50;5065676;28;20040;-77
2022/09/02 06:19:16;;;;;;;7.70;3.65;;;;;;;15.83;100.00;101225.28;5060172;28;20342;-78
2022/09/02 06:21:48;;;;;;;14.70;3.70;;;;;;;15.79;100.00;101224.72;5053248;28;20029;-79
2022/09/02 06:24:20;;;;;;;18.25;4.03;;;;;;;15.87;100.00;101223.97;5064616;28;20171;-78
2022/09/02 06:26:45;;;;;;;14.43;3.42;;;;;;;15.97;100.00;101220.19;5072586;28;20123;-77
2022/09/02 06:29:13;;;;;;;16.50;3.72;;;;;;;16.09;100.00;101226.41;5051693;28;20123;-77
2022/09/02 06:31:44;;;;;;;13.73;3.90;;;;;;;16.20;100.00;101227.25;5070936;28;20037;-78
2022/09/02 06:34:15;;;;;;;16.13;3.40;;;;;;;16.25;100.00;101223.03;5049881;28;20358;-76
2022/09/02 06:36:47;;;;;;;19.95;4.95;;;;;;;16.31;100.00;101219.66;5057847;28;20039;-78
2022/09/02 06:39:16;;;;;;;8.10;3.15;;;;;;;16.34;100.00;101226.78;5074182;28;20040;-80
2022/09/02 06:41:48;;;;;;;10.10;3.17;;;;;;;16.54;100.00;101225.72;5076288;28;20028;-77
2022/09/02 06:44:15;;;;;;;10.30;3.00;;;;;;;16.57;100.00;101224.50;5073815;28;20461;-77
2022/09/02 06:46:43;;;;;;;21.23;3.38;;;;;;;16.65;100.00;101224.63;5066971;28;20037;-77
2022/09/02 06:49:10;;;;;;;8.57;3.42;;;;;;;16.73;100.00;101218.34;5043812;28;20040;-77
2022/09/02 06:51:45;;;;;;;11.63;3.10;;;;;;;16.76;100.00;101218.03;5054487;28;20025;-77
2022/09/02 06:54:14;;;;;;;12.20;3.72;;;;;;;16.81;100.00;101209.28;5039753;28;20060;-77
2022/09/02 06:56:41;;;;;;;14.70;3.47;;;;;;;16.90;100.00;101214.81;5074035;28;20388;-77
2022/09/02 06:59:19;;;;;;;12.38;3.22;;;;;;;16.95;99.72;101214.31;5069904;28;20032;-78
2022/09/02 07:01:47;;;;;;;11.20;3.40;;;;;;;17.06;99.36;101203.03;5059995;28;20116;-77
2022/09/02 07:06:57;;;;;;;18.83;3.63;;;;;;;17.32;98.63;101209.72;5043797;28;20156;-77
2022/09/02 07:09:29;;;;;;;12.15;4.57;;;;;;;17.35;98.57;101204.75;5048204;28;20040;-78
2022/09/02 07:12:02;;;;;;;7.15;3.10;;;;;;;17.48;98.34;101212.66;5062418;28;20472;-78
2022/09/02 07:14:27;;;;;;;15.05;3.72;;;;;;;17.61;98.18;101201.16;5074051;28;20094;-78
2022/09/02 07:16:56;;;;;;;8.85;3.40;;;;;;;17.64;98.02;101200.84;5041250;28;20102;-77
2022/09/02 07:19:22;;;;;;;37.25;4.10;;;;;;;17.70;98.90;101202.13;5041128;28;20044;-77
2022/09/02 07:21:51;;;;;;;15.63;3.35;;;;;;;17.92;96.58;101203.53;5065002;28;20021;-78
2022/09/02 07:24:20;;;;;;;8.48;3.97;;;;;;;18.03;95.55;101200.50;5058681;28;20040;-77
2022/09/02 07:26:46;;;;;;;6.82;3.42;;;;;;;18.08;95.81;101205.56;5054114;28;20555;-78
2022/09/02 07:29:12;;;;;;;14.98;3.97;;;;;;;18.20;95.63;101204.28;5061501;28;20037;-78
2022/09/02 07:31:44;;;;;;;10.05;3.40;;;;;;;18.44;94.62;101203.53;5067275;28;20029;-79
2022/09/02 07:34:10;;;;;;;12.30;4.35;;;;;;;18.61;94.00;101189.75;5084353;28;20079;-79
2022/09/02 07:36:36;;;;;;;6.30;3.30;;;;;;;18.94;91.60;101189.94;5044556;28;20037;-78
2022/09/02 07:39:10;;;;;;;8.35;3.58;;;;;;;19.03;91.43;101183.38;5057485;28;20056;-78
2022/09/02 07:41:42;;;;;;;14.70;2.97;;;;;;;19.23;88.97;101192.28;5057156;28;20053;-78
2022/09/02 07:44:09;;;;;;;15.90;2.60;;;;;;;19.39;86.68;101180.34;5058219;28;20037;-78
2022/09/02 07:46:44;;;;;;;9.18;2.53;;;;;;;19.47;85.66;101189.53;5057186;28;20033;-78
2022/09/02 07:49:12;;;;;;;9.13;2.85;;;;;;;19.71;85.34;101184.16;5055347;28;20033;-78
2022/09/02 07:51:42;;;;;;;5.47;2.53;;;;;;;19.88;82.93;101185.09;5058501;28;20049;-78
2022/09/02 07:54:10;;;;;;;8.07;2.35;;;;;;;20.04;81.94;101196.19;5057342;28;20024;-80
2022/09/02 07:56:36;;;;;;;22.25;3.03;;;;;;;19.92;80.94;101192.00;5064333;28;20052;-79
2022/09/02 07:59:03;;;;;;;9.68;2.50;;;;;;;20.12;80.04;101190.63;5045048;28;20040;-78
2022/09/02 08:01:28;;;;;;;9.32;2.40;;;;;;;20.26;79.16;101189.00;5078722;28;20470;-78
2022/09/02 08:03:56;;;;;;;12.52;2.92;;;;;;;20.30;78.11;101189.50;5078107;28;20082;-78
2022/09/02 08:06:25;;;;;;;12.98;2.47;;;;;;;20.27;78.01;101193.53;5054550;28;20094;-77
2022/09/02 08:08:54;;;;;;;14.97;2.67;;;;;;;20.32;76.27;101188.31;5040023;28;20037;-77
2022/09/02 08:11:20;;;;;;;9.60;2.88;;;;;;;20.38;76.68;101189.50;5055763;28;20025;-77
2022/09/02 08:13:49;;;;;;;11.55;2.33;;;;;;;20.54;76.74;101196.94;5072203;28;20477;-78
2022/09/02 08:16:16;;;;;;;12.85;2.50;;;;;;;20.68;75.68;101193.44;5072678;28;20021;-80
2022/09/02 08:18:44;;;;;;;9.85;2.65;;;;;;;20.56;76.97;101184.59;5087892;28;20119;-78
2022/09/02 08:21:11;;;;;;;15.18;2.90;;;;;;;20.89;74.08;101187.28;5057042;28;20037;-79
2022/09/02 08:23:41;;;;;;;8.00;2.88;;;;;;;20.96;74.03;101187.41;5040471;28;20120;-78
2022/09/02 08:26:17;;;;;;;6.88;2.85;;;;;;;21.45;72.64;101180.69;5064293;28;20468;-78
2022/09/02 08:28:46;;;;;;;15.85;2.95;;;;;;;21.50;72.10;101178.22;5075970;28;20028;-78
2022/09/02 08:31:17;;;;;;;9.45;2.60;;;;;;;22.02;72.04;101171.84;5023657;28;20044;-78
2022/09/02 08:33:45;;;;;;;7.70;2.10;;;;;;;22.30;68.85;101184.31;5029616;28;20140;-78
2022/09/02 08:36:15;;;;;;;11.70;3.17;;;;;;;22.28;68.52;101173.31;5039453;28;20051;-78
2022/09/02 08:38:41;;;;;;;10.25;2.67;;;;;;;22.37;69.24;101176.94;5054141;28;20492;-78
2022/09/02 08:41:22;;;;;;;33.08;3.53;;;;;;;22.13;69.41;101175.22;5056457;28;20396;-78
2022/09/02 08:44:01;;;;;;;14.25;2.92;;;;;;;22.29;69.51;101165.88;5070282;28;20037;-76
2022/09/02 08:46:34;;;;;;;15.52;3.50;;;;;;;23.36;65.86;101162.53;5053910;28;20476;-77
2022/09/02 08:49:08;;;;;;;12.65;2.95;;;;;;;24.22;62.40;101164.44;5074338;28;20075;-78
2022/09/02 08:51:48;;;;;;;13.35;3.10;;;;;;;23.81;62.43;101162.34;5040217;28;20119;-78
2022/09/02 08:54:27;;;;;;;19.10;4.43;;;;;;;23.59;60.81;101164.28;5056060;28;20049;-78
2022/09/02 08:57:02;;;;;;;20.88;6.28;;;;;;;23.15;61.86;101170.91;5087927;28;20037;-78
2022/09/02 08:59:35;;;;;;;17.58;6.45;;;;;;;23.37;61.16;101164.28;5072097;28;20041;-78
2022/09/02 09:02:22;;;;;;;14.98;4.40;;;;;;;23.39;61.67;101158.50;5022993;28;20041;-78
2022/09/02 09:05:05;;;;;;;32.25;9.25;;;;;;;23.31;61.75;101167.88;5068230;28;20024;-78
2022/09/02 09:07:39;;;;;;;23.70;8.25;;;;;;;23.85;59.71;101164.56;5054220;28;20032;-78
2022/09/02 09:10:43;;;;;;;38.67;10.63;;;;;;;24.31;57.72;101159.53;5055564;28;20477;-78
2022/09/02 09:13:22;;;;;;;21.17;6.35;;;;;;;24.98;54.06;101154.31;5046594;28;20095;-78
2022/09/02 09:16:36;;;;;;;39.10;8.82;;;;;;;24.73;54.80;101155.72;5042628;28;20031;-78
2022/09/02 09:19:15;;;;;;;60.63;19.73;;;;;;;24.65;54.33;101164.28;4994605;28;20064;-78
2022/09/02 09:21:43;;;;;;;19.02;6.32;;;;;;;24.94;54.98;101156.66;5071542;28;20040;-78
2022/09/02 09:24:21;;;;;;;14.82;3.55;;;;;;;25.49;53.19;101160.31;5074369;28;20088;-78
2022/09/02 09:26:47;;;;;;;19.73;3.28;;;;;;;25.49;52.30;101151.88;5065076;28;20040;-78
2022/09/02 09:29:17;;;;;;;19.60;6.53;;;;;;;25.40;52.45;101146.69;5053822;28;20061;-78
2022/09/02 09:31:56;;;;;;;21.30;5.35;;;;;;;25.40;54.09;101156.00;5039271;28;20124;-78
2022/09/02 09:35:00;;;;;;;28.70;8.60;;;;;;;25.46;51.22;101145.84;5055174;28;20036;-78
2022/09/02 09:37:38;;;;;;;32.03;9.10;;;;;;;25.68;51.43;101143.75;5049704;28;20098;-78
2022/09/02 09:40:20;;;;;;;36.25;11.88;;;;;;;25.95;50.35;101152.16;5076065;28;20051;-78
2022/09/02 09:43:00;;;;;;;13.85;5.65;;;;;;;26.04;49.62;101139.66;5074994;28;20032;-77
2022/09/02 09:45:37;;;;;;;13.40;3.92;;;;;;;25.93;50.67;101137.47;5070139;28;20060;-79
2022/09/02 09:48:15;;;;;;;18.23;4.57;;;;;;;26.52;49.34;101138.50;5056523;28;20033;-78
2022/09/02 09:51:04;;;;;;;8.93;3.28;;;;;;;26.43;47.37;101149.06;5055383;28;20391;-78
2022/09/02 09:53:34;;;;;;;10.27;3.78;;;;;;;25.89;48.92;101139.84;5053796;28;20108;-77
2022/09/02 09:56:22;;;;;;;;;;;;;;;26.18;48.17;101137.69;5054861;28;20538;-78
2022/09/02 09:58:53;;;;;;;15.18;2.78;;;;;;;26.66;46.36;101142.13;5052981;28;19912;-78
2022/09/02 10:01:32;;;;;;;8.02;3.55;;;;;;;26.75;46.51;101136.06;5057780;28;20117;-78
2022/09/02 10:04:08;;;;;;;7.28;2.83;;;;;;;26.53;47.66;101135.47;5039322;28;20037;-78
2022/09/02 10:06:43;;;;;;;14.93;3.38;;;;;;;26.45;47.42;101130.09;5054823;28;20057;-78
2022/09/02 10:09:13;;;;;;;13.82;6.88;;;;;;;26.67;47.07;101144.72;5054308;28;20063;-78
2022/09/02 10:11:58;;;;;;;61.35;18.70;;;;;;;26.25;47.02;101135.72;5054800;28;20361;-77
2022/09/02 10:14:38;;;;;;;34.60;8.45;;;;;;;26.38;46.45;101134.84;5067508;28;20031;-78
2022/09/02 10:17:31;;;;;;;27.55;8.57;;;;;;;26.36;46.75;101126.63;5074236;28;20036;-78
2022/09/02 10:19:59;;;;;;;20.52;9.32;;;;;;;26.00;47.49;101121.53;5074388;28;20071;-78
2022/09/02 10:22:29;;;;;;;91.15;26.52;;;;;;;26.29;46.98;101136.19;5076019;28;20483;-78
2022/09/02 10:25:35;;;;;;;54.55;19.25;;;;;;;26.25;47.47;101123.66;5068642;28;20056;-78
2022/09/02 10:28:17;;;;;;;46.20;15.90;;;;;;;26.42;45.60;101108.91;5070129;28;20028;-79
2022/09/02 10:30:54;;;;;;;39.15;12.60;;;;;;;26.88;46.01;101112.66;5047546;28;20028;-78
2022/09/02 10:33:56;;;;;;;59.50;20.17;;;;;;;26.63;45.63;101112.53;5037379;28;20029;-77
2022/09/02 10:36:30;;;;;;;85.82;23.17;;;;;;;26.56;45.72;101101.31;5065423;28;20452;-77
2022/09/02 10:39:31;;;;;;;70.25;24.50;;;;;;;27.04;46.37;101100.03;5053578;28;20522;-77
2022/09/02 10:42:22;;;;;;;26.42;7.55;;;;;;;27.06;43.92;101099.81;5061196;28;20153;-79
2022/09/02 10:45:07;;;;;;;19.27;5.95;;;;;;;27.07;44.24;101091.16;5068301;28;20025;-79
2022/09/02 10:47:39;;;;;;;13.10;2.83;;;;;;;27.18;43.88;101095.19;5046461;28;20042;-79
2022/09/02 10:50:10;;;;;;;21.73;6.82;;;;;;;26.90;41.89;101102.03;5060598;28;20116;-79
2022/09/02 10:53:15;;;;;;;20.38;5.68;;;;;;;26.73;42.56;101098.03;5054782;28;20029;-79
2022/09/02 10:55:51;;;;;;;15.50;5.43;;;;;;;26.91;42.61;101086.06;5047902;28;20045;-78
2022/09/02 10:58:44;;;;;;;11.70;3.40;;;;;;;27.20;41.65;101080.91;5056571;28;20024;-79
2022/09/02 11:01:19;;;;;;;44.13;11.75;;;;;;;27.36;41.15;101069.16;5049677;28;20354;-79
2022/09/02 11:04:22;;;;;;;31.15;9.40;;;;;;;27.21;40.79;101077.03;5059877;28;20436;-79
2022/09/02 11:06:50;;;;;;;15.55;5.68;;;;;;;27.48;38.54;101077.69;4987847;28;20041;-79
2022/09/02 11:09:39;;;;;;;37.83;14.48;;;;;;;27.46;39.37;101069.47;5062129;28;20041;-81
2022/09/02 11:12:15;;;;;;;15.43;5.55;;;;;;;27.02;37.95;101084.47;5062086;28;20028;-79
2022/09/02 11:15:08;;;;;;;17.35;6.55;;;;;;;27.09;38.36;101068.44;5074982;28;20059;-79
2022/09/02 11:18:09;;;;;;;20.20;5.43;;;;;;;27.11;37.56;101061.50;5054693;28;20029;-80
2022/09/02 11:20:40;;;;;;;11.93;4.43;;;;;;;27.20;36.68;101061.22;5072670;28;20043;-79
2022/09/02 11:23:24;;;;;;;10.40;2.70;;;;;;;27.27;36.94;101053.59;5069118;28;20033;-79
2022/09/02 11:25:59;;;;;;;32.25;10.13;;;;;;;27.24;34.23;101054.94;5066586;28;20035;-79
2022/09/02 11:28:42;;;;;;;15.80;5.95;;;;;;;27.34;33.01;101059.22;5077953;28;20480;-81
2022/09/02 11:31:36;;;;;;;12.80;4.05;;;;;;;26.99;34.28;101056.81;5064832;28;20123;-79
2022/09/02 11:34:25;;;;;;;22.25;8.50;;;;;;;27.03;33.75;101049.69;5065288;28;20334;-79
2022/09/02 11:36:54;;;;;;;10.18;3.97;;;;;;;27.04;34.27;101045.75;5058207;28;20033;-79
2022/09/02 11:39:42;;;;;;;8.50;3.33;;;;;;;27.00;35.11;101052.94;5059304;28;20491;-79
2022/09/02 11:42:43;;;;;;;13.77;3.80;;;;;;;27.37;34.85;101041.88;5058411;28;20295;-79
2022/09/02 11:45:17;;;;;;;9.02;3.67;;;;;;;27.22;35.57;101040.25;5066071;28;20044;-79